createdAt,value
2016-10-25T00:00:21.509Z,1009.5
2016-10-25T00:01:22.105Z,1009.5
2016-10-25T00:02:21.523Z,1009.49
2016-10-25T00:03:21.582Z,1009.44
2016-10-25T00:04:22.225Z,1009.47
2016-10-25T00:05:21.546Z,1009.47
2016-10-25T00:06:21.552Z,1009.46
2016-10-25T00:07:22.349Z,1009.49
2016-10-25T00:08:21.663Z,1009.5
2016-10-25T00:09:21.774Z,1009.57
2016-10-25T00:10:22.472Z,1009.54
2016-10-25T00:11:21.832Z,1009.56
2016-10-25T00:12:21.595Z,1009.55
2016-10-25T00:13:22.642Z,1009.58
2016-10-25T00:14:21.954Z,1009.61
2016-10-25T00:15:21.617Z,1009.61
2016-10-25T00:16:22.767Z,1009.64
2016-10-25T00:17:22.077Z,1009.63
2016-10-25T00:18:21.639Z,1009.62
2016-10-25T00:19:22.711Z,1009.6
2016-10-25T00:20:22.198Z,1009.6
2016-10-25T00:21:21.709Z,1009.64
2016-10-25T00:22:21.666Z,1009.63
2016-10-25T00:23:22.319Z,1009.67
2016-10-25T00:24:21.680Z,1009.72
2016-10-25T00:25:21.738Z,1009.7
2016-10-25T00:26:22.445Z,1009.75
2016-10-25T00:27:21.754Z,1009.74
2016-10-25T00:28:21.709Z,1009.73
2016-10-25T00:29:22.616Z,1009.76
2016-10-25T00:30:21.889Z,1009.72
2016-10-25T00:31:21.880Z,1009.74
2016-10-25T00:32:22.690Z,1009.73
2016-10-25T00:33:22.048Z,1009.72
2016-10-25T00:34:21.753Z,1009.78
2016-10-25T00:35:22.863Z,1009.78
2016-10-25T00:36:22.170Z,1009.81
2016-10-25T00:37:21.823Z,1009.84
2016-10-25T00:38:22.831Z,1009.84
2016-10-25T00:39:22.293Z,1009.83
2016-10-25T00:40:21.793Z,1009.8
2016-10-25T00:41:21.802Z,1009.78
2016-10-25T00:42:22.415Z,1009.8
2016-10-25T00:43:21.814Z,1009.81
2016-10-25T00:44:21.823Z,1009.81
2016-10-25T00:45:22.540Z,1009.8
2016-10-25T00:46:21.848Z,1009.8
2016-10-25T00:47:23.193Z,1009.82
2016-10-25T00:48:22.662Z,1009.84
2016-10-25T00:49:21.969Z,1009.85
2016-10-25T00:50:21.914Z,1009.85
2016-10-25T00:51:22.784Z,1009.86
2016-10-25T00:52:22.145Z,1009.85
2016-10-25T00:53:21.889Z,1009.89
2016-10-25T00:54:22.956Z,1009.85
2016-10-25T00:55:22.264Z,1009.93
2016-10-25T00:56:21.907Z,1009.97
2016-10-25T00:57:22.964Z,1010
2016-10-25T00:58:22.388Z,1010.03
2016-10-25T00:59:21.929Z,1010.05
2016-10-25T01:00:22.987Z,1010.04
2016-10-25T01:01:22.510Z,1010.06
2016-10-25T01:02:21.949Z,1010.09
2016-10-25T01:03:21.956Z,1010.1
2016-10-25T01:04:22.633Z,1010.1
2016-10-25T01:05:21.969Z,1010.11
2016-10-25T01:06:21.978Z,1010.1
2016-10-25T01:07:22.806Z,1010.11
2016-10-25T01:08:22.065Z,1010.13
2016-10-25T01:09:21.998Z,1010.14
2016-10-25T01:10:22.928Z,1010.16
2016-10-25T01:11:22.186Z,1010.2
2016-10-25T01:12:22.019Z,1010.22
2016-10-25T01:13:23.050Z,1010.2
2016-10-25T01:14:22.360Z,1010.18
2016-10-25T01:15:22.041Z,1010.2
2016-10-25T01:16:23.172Z,1010.25
2016-10-25T01:17:22.483Z,1010.28
2016-10-25T01:18:22.061Z,1010.34
2016-10-25T01:19:23.171Z,1010.32
2016-10-25T01:20:22.604Z,1010.28
2016-10-25T01:21:22.083Z,1010.33
2016-10-25T01:22:22.090Z,1010.35
2016-10-25T01:23:22.728Z,1010.31
2016-10-25T01:24:22.103Z,1010.3
2016-10-25T01:25:22.111Z,1010.35
2016-10-25T01:26:22.850Z,1010.36
2016-10-25T01:27:22.159Z,1010.35
2016-10-25T01:28:22.133Z,1010.41
2016-10-25T01:29:22.973Z,1010.42
2016-10-25T01:30:22.283Z,1010.42
2016-10-25T01:31:22.153Z,1010.44
2016-10-25T01:32:23.153Z,1010.41
2016-10-25T01:33:22.455Z,1010.4
2016-10-25T01:34:22.180Z,1010.41
2016-10-25T01:35:23.267Z,1010.43
2016-10-25T01:36:22.576Z,1010.46
2016-10-25T01:37:22.193Z,1010.44
2016-10-25T01:38:23.253Z,1010.46
2016-10-25T01:39:22.701Z,1010.45
2016-10-25T01:40:22.216Z,1010.48
2016-10-25T01:41:23.336Z,1010.48
2016-10-25T01:42:22.821Z,1010.52
2016-10-25T01:43:22.237Z,1010.51
2016-10-25T01:44:22.243Z,1010.53
2016-10-25T01:45:22.995Z,1010.52
2016-10-25T01:46:22.257Z,1010.55
2016-10-25T01:47:22.265Z,1010.59
2016-10-25T01:48:23.069Z,1010.58
2016-10-25T01:49:22.428Z,1010.61
2016-10-25T01:50:22.287Z,1010.6
2016-10-25T01:51:23.190Z,1010.66
2016-10-25T01:52:22.499Z,1010.66
2016-10-25T01:53:22.308Z,1010.69
2016-10-25T01:54:23.313Z,1010.71
2016-10-25T01:55:22.673Z,1010.7
2016-10-25T01:56:22.329Z,1010.68
2016-10-25T01:57:23.486Z,1010.67
2016-10-25T01:58:22.794Z,1010.72
2016-10-25T01:59:22.350Z,1010.76
2016-10-25T02:00:23.422Z,1010.77
2016-10-25T02:01:22.920Z,1010.79
2016-10-25T02:02:22.369Z,1010.74
2016-10-25T02:03:22.378Z,1010.77
2016-10-25T02:04:23.040Z,1010.75
2016-10-25T02:05:22.392Z,1010.74
2016-10-25T02:06:22.399Z,1010.72
2016-10-25T02:07:23.162Z,1010.72
2016-10-25T02:08:22.471Z,1010.7
2016-10-25T02:09:22.420Z,1010.69
2016-10-25T02:10:23.284Z,1010.67
2016-10-25T02:11:22.643Z,1010.67
2016-10-25T02:12:22.491Z,1010.7
2016-10-25T02:13:23.458Z,1010.72
2016-10-25T02:14:22.717Z,1010.8
2016-10-25T02:15:22.463Z,1010.82
2016-10-25T02:16:23.580Z,1010.84
2016-10-25T02:17:22.889Z,1010.84
2016-10-25T02:18:22.482Z,1010.89
2016-10-25T02:19:23.542Z,1010.87
2016-10-25T02:20:23.012Z,1010.87
2016-10-25T02:21:22.554Z,1010.86
2016-10-25T02:22:22.512Z,1010.87
2016-10-25T02:23:23.133Z,1010.84
2016-10-25T02:24:22.575Z,1010.85
2016-10-25T02:25:22.531Z,1010.88
2016-10-25T02:26:23.271Z,1010.88
2016-10-25T02:27:22.581Z,1010.9
2016-10-25T02:28:22.604Z,1010.87
2016-10-25T02:29:23.380Z,1010.85
2016-10-25T02:30:22.689Z,1010.81
2016-10-25T02:31:22.575Z,1010.85
2016-10-25T02:32:23.502Z,1010.8
2016-10-25T02:33:22.860Z,1010.81
2016-10-25T02:34:22.597Z,1010.85
2016-10-25T02:35:23.676Z,1010.83
2016-10-25T02:36:22.935Z,1010.85
2016-10-25T02:37:22.617Z,1010.87
2016-10-25T02:38:23.676Z,1010.86
2016-10-25T02:39:23.107Z,1010.91
2016-10-25T02:40:22.687Z,1010.92
2016-10-25T02:41:23.706Z,1010.95
2016-10-25T02:42:23.229Z,1010.98
2016-10-25T02:43:22.659Z,1010.93
2016-10-25T02:44:22.672Z,1010.96
2016-10-25T02:45:23.354Z,1010.96
2016-10-25T02:46:22.678Z,1010.97
2016-10-25T02:47:22.687Z,1010.95
2016-10-25T02:48:23.474Z,1010.97
2016-10-25T02:49:22.782Z,1010.98
2016-10-25T02:50:22.707Z,1011
2016-10-25T02:51:23.648Z,1010.97
2016-10-25T02:52:22.904Z,1011.04
2016-10-25T02:53:22.727Z,1011.02
2016-10-25T02:54:23.721Z,1011.02
2016-10-25T02:55:23.078Z,1011.04
2016-10-25T02:56:22.748Z,1011
2016-10-25T02:57:23.892Z,1011.01
2016-10-25T02:58:23.201Z,1011.01
2016-10-25T02:59:22.768Z,1011.05
2016-10-25T03:00:23.917Z,1011.04
2016-10-25T03:01:23.323Z,1011.06
2016-10-25T03:02:22.789Z,1011.06
2016-10-25T03:03:22.796Z,1011.09
2016-10-25T03:04:23.444Z,1011.1
2016-10-25T03:05:22.810Z,1011.11
2016-10-25T03:06:22.817Z,1011.08
2016-10-25T03:07:23.569Z,1011.11
2016-10-25T03:08:22.877Z,1011.12
2016-10-25T03:09:22.836Z,1011.09
2016-10-25T03:10:23.690Z,1011.16
2016-10-25T03:11:22.999Z,1011.21
2016-10-25T03:12:22.857Z,1011.26
2016-10-25T03:13:23.862Z,1011.24
2016-10-25T03:14:23.171Z,1011.28
2016-10-25T03:15:22.879Z,1011.26
2016-10-25T03:16:23.984Z,1011.31
2016-10-25T03:17:23.293Z,1011.33
2016-10-25T03:18:22.899Z,1011.37
2016-10-25T03:19:23.957Z,1011.36
2016-10-25T03:20:23.416Z,1011.37
2016-10-25T03:21:22.920Z,1011.42
2016-10-25T03:22:22.927Z,1011.41
2016-10-25T03:23:23.540Z,1011.49
2016-10-25T03:24:22.939Z,1011.47
2016-10-25T03:25:22.947Z,1011.47
2016-10-25T03:26:23.710Z,1011.51
2016-10-25T03:27:22.969Z,1011.49
2016-10-25T03:28:22.969Z,1011.48
2016-10-25T03:29:23.784Z,1011.44
2016-10-25T03:30:23.092Z,1011.48
2016-10-25T03:31:22.990Z,1011.43
2016-10-25T03:32:23.957Z,1011.38
2016-10-25T03:33:23.265Z,1011.31
2016-10-25T03:34:23.010Z,1011.31
2016-10-25T03:35:24.028Z,1011.29
2016-10-25T03:36:23.388Z,1011.3
2016-10-25T03:37:23.031Z,1011.28
2016-10-25T03:38:24.201Z,1011.35
2016-10-25T03:39:23.509Z,1011.41
2016-10-25T03:40:23.052Z,1011.37
2016-10-25T03:41:24.108Z,1011.43
2016-10-25T03:42:23.635Z,1011.43
2016-10-25T03:43:23.075Z,1011.39
2016-10-25T03:44:23.131Z,1011.44
2016-10-25T03:45:23.753Z,1011.48
2016-10-25T03:46:23.094Z,1011.46
2016-10-25T03:47:23.101Z,1011.52
2016-10-25T03:48:23.879Z,1011.53
2016-10-25T03:49:23.186Z,1011.54
2016-10-25T03:50:23.122Z,1011.56
2016-10-25T03:51:24.001Z,1011.59
2016-10-25T03:52:23.311Z,1011.53
2016-10-25T03:53:23.146Z,1011.57
2016-10-25T03:54:24.173Z,1011.59
2016-10-25T03:55:23.482Z,1011.67
2016-10-25T03:56:23.163Z,1011.68
2016-10-25T03:57:24.296Z,1011.71
2016-10-25T03:58:23.613Z,1011.75
2016-10-25T03:59:23.184Z,1011.66
2016-10-25T04:00:24.320Z,1011.64
2016-10-25T04:01:23.727Z,1011.59
2016-10-25T04:02:23.206Z,1011.58
2016-10-25T04:03:23.214Z,1011.61
2016-10-25T04:04:23.849Z,1011.62
2016-10-25T04:05:23.227Z,1011.58
2016-10-25T04:06:23.234Z,1011.63
2016-10-25T04:07:23.972Z,1011.65
2016-10-25T04:08:23.281Z,1011.64
2016-10-25T04:09:23.255Z,1011.65
2016-10-25T04:10:24.095Z,1011.6
2016-10-25T04:11:23.403Z,1011.58
2016-10-25T04:12:23.275Z,1011.6
2016-10-25T04:13:24.217Z,1011.61
2016-10-25T04:14:23.525Z,1011.65
2016-10-25T04:15:23.297Z,1011.67
2016-10-25T04:16:24.342Z,1011.71
2016-10-25T04:17:23.698Z,1011.75
2016-10-25T04:18:23.316Z,1011.79
2016-10-25T04:19:24.373Z,1011.84
2016-10-25T04:20:23.821Z,1011.89
2016-10-25T04:21:23.337Z,1011.92
2016-10-25T04:22:23.345Z,1011.96
2016-10-25T04:23:23.960Z,1011.96
2016-10-25T04:24:23.359Z,1012
2016-10-25T04:25:23.365Z,1012.01
2016-10-25T04:26:24.082Z,1012.08
2016-10-25T04:27:23.429Z,1012.1
2016-10-25T04:28:23.386Z,1012.12
2016-10-25T04:29:24.190Z,1012.13
2016-10-25T04:30:23.514Z,1012.12
2016-10-25T04:31:23.407Z,1012.17
2016-10-25T04:32:24.363Z,1012.22
2016-10-25T04:33:23.636Z,1012.24
2016-10-25T04:34:23.427Z,1012.29
2016-10-25T04:35:24.485Z,1012.32
2016-10-25T04:36:23.810Z,1012.34
2016-10-25T04:37:23.449Z,1012.38
2016-10-25T04:38:24.608Z,1012.41
2016-10-25T04:39:23.932Z,1012.36
2016-10-25T04:40:23.469Z,1012.36
2016-10-25T04:41:24.534Z,1012.38
2016-10-25T04:42:24.040Z,1012.39
2016-10-25T04:43:23.490Z,1012.39
2016-10-25T04:44:24.699Z,1012.37
2016-10-25T04:45:24.177Z,1012.35
2016-10-25T04:46:23.516Z,1012.39
2016-10-25T04:47:23.519Z,1012.38
2016-10-25T04:48:24.300Z,1012.37
2016-10-25T04:49:23.592Z,1012.38
2016-10-25T04:50:23.541Z,1012.42
2016-10-25T04:51:24.463Z,1012.44
2016-10-25T04:52:23.717Z,1012.5
2016-10-25T04:53:23.561Z,1012.51
2016-10-25T04:54:24.530Z,1012.5
2016-10-25T04:55:23.904Z,1012.55
2016-10-25T04:56:23.611Z,1012.58
2016-10-25T04:57:24.703Z,1012.64
2016-10-25T04:58:24.028Z,1012.65
2016-10-25T04:59:23.603Z,1012.65
2016-10-25T05:00:24.743Z,1012.66
2016-10-25T05:01:24.136Z,1012.68
2016-10-25T05:02:23.624Z,1012.72
2016-10-25T05:03:23.630Z,1012.7
2016-10-25T05:04:24.257Z,1012.74
2016-10-25T05:05:23.645Z,1012.75
2016-10-25T05:06:23.663Z,1012.78
2016-10-25T05:07:24.630Z,1012.79
2016-10-25T05:08:23.706Z,1012.85
2016-10-25T05:09:23.673Z,1012.84
2016-10-25T05:10:24.553Z,1012.89
2016-10-25T05:11:23.828Z,1012.87
2016-10-25T05:12:23.707Z,1012.93
2016-10-25T05:13:24.674Z,1012.93
2016-10-25T05:14:24.000Z,1012.95
2016-10-25T05:15:23.716Z,1012.96
2016-10-25T05:16:24.798Z,1012.94
2016-10-25T05:17:24.107Z,1012.94
2016-10-25T05:18:23.737Z,1012.94
2016-10-25T05:19:24.845Z,1012.98
2016-10-25T05:20:24.230Z,1013
2016-10-25T05:21:23.807Z,1012.97
2016-10-25T05:22:24.826Z,1012.98
2016-10-25T05:23:24.367Z,1012.95
2016-10-25T05:24:23.783Z,1012.98
2016-10-25T05:25:23.785Z,1012.99
2016-10-25T05:26:24.475Z,1012.98
2016-10-25T05:27:23.814Z,1012.97
2016-10-25T05:28:23.805Z,1013
2016-10-25T05:29:24.598Z,1013.01
2016-10-25T05:30:23.923Z,1013.02
2016-10-25T05:31:23.826Z,1013.02
2016-10-25T05:32:24.770Z,1013.07
2016-10-25T05:33:24.060Z,1013.07
2016-10-25T05:34:23.897Z,1013.09
2016-10-25T05:35:24.895Z,1013.15
2016-10-25T05:36:24.215Z,1013.18
2016-10-25T05:37:23.877Z,1013.18
2016-10-25T05:38:25.018Z,1013.21
2016-10-25T05:39:24.339Z,1013.19
2016-10-25T05:40:23.889Z,1013.23
2016-10-25T05:41:24.967Z,1013.21
2016-10-25T05:42:24.459Z,1013.19
2016-10-25T05:43:23.911Z,1013.23
2016-10-25T05:44:23.917Z,1013.26
2016-10-25T05:45:24.570Z,1013.23
2016-10-25T05:46:23.931Z,1013.22
2016-10-25T05:47:23.938Z,1013.21
2016-10-25T05:48:24.713Z,1013.24
2016-10-25T05:49:24.002Z,1013.25
2016-10-25T05:50:24.008Z,1013.28
2016-10-25T05:51:24.864Z,1013.3
2016-10-25T05:52:24.125Z,1013.34
2016-10-25T05:53:23.980Z,1013.36
2016-10-25T05:54:24.939Z,1013.41
2016-10-25T05:55:24.246Z,1013.42
2016-10-25T05:56:24.050Z,1013.46
2016-10-25T05:57:25.111Z,1013.51
2016-10-25T05:58:24.419Z,1013.45
2016-10-25T05:59:24.021Z,1013.5
2016-10-25T06:00:25.078Z,1013.56
2016-10-25T06:01:24.542Z,1013.6
2016-10-25T06:02:24.042Z,1013.63
2016-10-25T06:03:24.048Z,1013.68
2016-10-25T06:04:24.663Z,1013.66
2016-10-25T06:05:24.062Z,1013.67
2016-10-25T06:06:24.120Z,1013.66
2016-10-25T06:07:24.787Z,1013.7
2016-10-25T06:08:24.113Z,1013.7
2016-10-25T06:09:24.141Z,1013.68
2016-10-25T06:10:24.910Z,1013.71
2016-10-25T06:11:24.468Z,1013.69
2016-10-25T06:12:24.111Z,1013.71
2016-10-25T06:13:25.033Z,1013.75
2016-10-25T06:14:24.391Z,1013.77
2016-10-25T06:15:24.133Z,1013.8
2016-10-25T06:16:25.157Z,1013.86
2016-10-25T06:17:24.464Z,1013.88
2016-10-25T06:18:24.152Z,1013.89
2016-10-25T06:19:25.461Z,1013.94
2016-10-25T06:20:24.637Z,1013.94
2016-10-25T06:21:24.174Z,1013.99
2016-10-25T06:22:25.235Z,1013.99
2016-10-25T06:23:24.761Z,1014.02
2016-10-25T06:24:24.210Z,1013.99
2016-10-25T06:25:24.203Z,1014.01
2016-10-25T06:26:24.881Z,1014.02
2016-10-25T06:27:24.214Z,1014
2016-10-25T06:28:24.222Z,1014.02
2016-10-25T06:29:25.005Z,1014.01
2016-10-25T06:30:24.312Z,1014.02
2016-10-25T06:31:24.243Z,1014.06
2016-10-25T06:32:25.174Z,1014.12
2016-10-25T06:33:24.435Z,1014.18
2016-10-25T06:34:24.263Z,1014.24
2016-10-25T06:35:25.299Z,1014.25
2016-10-25T06:36:24.556Z,1014.36
2016-10-25T06:37:24.284Z,1014.42
2016-10-25T06:38:25.424Z,1014.36
2016-10-25T06:39:24.680Z,1014.37
2016-10-25T06:40:24.304Z,1014.37
2016-10-25T06:41:25.446Z,1014.37
2016-10-25T06:42:24.854Z,1014.38
2016-10-25T06:43:24.343Z,1014.37
2016-10-25T06:44:24.333Z,1014.43
2016-10-25T06:45:24.976Z,1014.4
2016-10-25T06:46:24.347Z,1014.44
2016-10-25T06:47:25.654Z,1014.41
2016-10-25T06:48:25.099Z,1014.44
2016-10-25T06:49:24.408Z,1014.44
2016-10-25T06:50:24.376Z,1014.42
2016-10-25T06:51:25.222Z,1014.44
2016-10-25T06:52:24.580Z,1014.41
2016-10-25T06:53:24.394Z,1014.47
2016-10-25T06:54:25.393Z,1014.48
2016-10-25T06:55:24.652Z,1014.48
2016-10-25T06:56:24.415Z,1014.49
2016-10-25T06:57:25.468Z,1014.53
2016-10-25T06:58:24.840Z,1014.53
2016-10-25T06:59:24.435Z,1014.57
2016-10-25T07:00:25.494Z,1014.57
2016-10-25T07:01:24.948Z,1014.57
2016-10-25T07:02:24.456Z,1014.57
2016-10-25T07:03:25.576Z,1014.57
2016-10-25T07:04:25.072Z,1014.62
2016-10-25T07:05:24.477Z,1014.65
2016-10-25T07:06:24.484Z,1014.7
2016-10-25T07:07:25.194Z,1014.66
2016-10-25T07:08:24.502Z,1014.68
2016-10-25T07:09:24.504Z,1014.71
2016-10-25T07:10:25.316Z,1014.68
2016-10-25T07:11:24.625Z,1014.73
2016-10-25T07:12:24.527Z,1014.73
2016-10-25T07:13:25.490Z,1014.74
2016-10-25T07:14:24.796Z,1014.77
2016-10-25T07:15:24.546Z,1014.79
2016-10-25T07:16:25.610Z,1014.82
2016-10-25T07:17:24.871Z,1014.83
2016-10-25T07:18:24.568Z,1014.83
2016-10-25T07:19:25.735Z,1014.85
2016-10-25T07:20:25.043Z,1014.87
2016-10-25T07:21:24.588Z,1014.91
2016-10-25T07:22:25.643Z,1014.9
2016-10-25T07:23:25.168Z,1014.94
2016-10-25T07:24:24.659Z,1015.01
2016-10-25T07:25:24.666Z,1015
2016-10-25T07:26:25.289Z,1015
2016-10-25T07:27:24.680Z,1015.02
2016-10-25T07:28:24.636Z,1015.05
2016-10-25T07:29:25.462Z,1015.02
2016-10-25T07:30:24.771Z,1015.01
2016-10-25T07:31:24.657Z,1015.01
2016-10-25T07:32:25.584Z,1015.05
2016-10-25T07:33:24.842Z,1015.04
2016-10-25T07:34:24.678Z,1015.04
2016-10-25T07:35:25.659Z,1015.05
2016-10-25T07:36:25.016Z,1015.1
2016-10-25T07:37:24.699Z,1015.07
2016-10-25T07:38:25.830Z,1015.06
2016-10-25T07:39:25.142Z,1015.1
2016-10-25T07:40:24.719Z,1015.12
2016-10-25T07:41:25.853Z,1015.16
2016-10-25T07:42:25.261Z,1015.18
2016-10-25T07:43:24.740Z,1015.19
2016-10-25T07:44:24.747Z,1015.18
2016-10-25T07:45:25.383Z,1015.19
2016-10-25T07:46:24.759Z,1015.2
2016-10-25T07:47:24.767Z,1015.16
2016-10-25T07:48:25.506Z,1015.18
2016-10-25T07:49:24.814Z,1015.22
2016-10-25T07:50:24.790Z,1015.22
2016-10-25T07:51:25.629Z,1015.22
2016-10-25T07:52:25.002Z,1015.23
2016-10-25T07:53:24.811Z,1015.29
2016-10-25T07:54:25.752Z,1015.28
2016-10-25T07:55:25.094Z,1015.32
2016-10-25T07:56:24.833Z,1015.32
2016-10-25T07:57:25.924Z,1015.33
2016-10-25T07:58:25.233Z,1015.36
2016-10-25T07:59:24.853Z,1015.35
2016-10-25T08:00:25.912Z,1015.37
2016-10-25T08:01:25.355Z,1015.36
2016-10-25T08:02:24.874Z,1015.42
2016-10-25T08:03:24.882Z,1015.43
2016-10-25T08:04:25.479Z,1015.44
2016-10-25T08:05:24.896Z,1015.43
2016-10-25T08:06:24.903Z,1015.46
2016-10-25T08:07:25.651Z,1015.44
2016-10-25T08:08:24.917Z,1015.41
2016-10-25T08:09:24.924Z,1015.41
2016-10-25T08:10:25.723Z,1015.44
2016-10-25T08:11:25.032Z,1015.5
2016-10-25T08:12:24.947Z,1015.49
2016-10-25T08:13:25.897Z,1015.49
2016-10-25T08:14:25.205Z,1015.52
2016-10-25T08:15:25.020Z,1015.51
2016-10-25T08:16:26.019Z,1015.5
2016-10-25T08:17:25.326Z,1015.53
2016-10-25T08:18:25.040Z,1015.49
2016-10-25T08:19:26.142Z,1015.49
2016-10-25T08:20:25.452Z,1015.55
2016-10-25T08:21:25.011Z,1015.54
2016-10-25T08:22:26.085Z,1015.51
2016-10-25T08:23:27.525Z,1015.56
2016-10-25T08:24:25.035Z,1015.59
2016-10-25T08:25:25.045Z,1015.6
2016-10-25T08:26:25.695Z,1015.63
2016-10-25T08:27:25.057Z,1015.64
2016-10-25T08:28:25.065Z,1015.6
2016-10-25T08:29:25.821Z,1015.59
2016-10-25T08:30:25.197Z,1015.61
2016-10-25T08:31:25.087Z,1015.57
2016-10-25T08:32:25.994Z,1015.6
2016-10-25T08:33:25.323Z,1015.59
2016-10-25T08:34:25.111Z,1015.6
2016-10-25T08:35:26.371Z,1015.62
2016-10-25T08:36:25.426Z,1015.58
2016-10-25T08:37:25.132Z,1015.61
2016-10-25T08:38:26.240Z,1015.6
2016-10-25T08:39:25.548Z,1015.62
2016-10-25T08:40:25.156Z,1015.65
2016-10-25T08:41:26.213Z,1015.65
2016-10-25T08:42:25.685Z,1015.62
2016-10-25T08:43:25.227Z,1015.62
2016-10-25T08:44:25.184Z,1015.64
2016-10-25T08:45:25.808Z,1015.62
2016-10-25T08:46:25.202Z,1015.65
2016-10-25T08:47:25.258Z,1015.67
2016-10-25T08:48:25.965Z,1015.67
2016-10-25T08:49:25.272Z,1015.7
2016-10-25T08:50:25.230Z,1015.67
2016-10-25T08:51:26.087Z,1015.67
2016-10-25T08:52:25.345Z,1015.65
2016-10-25T08:53:25.252Z,1015.67
2016-10-25T08:54:26.227Z,1015.68
2016-10-25T08:55:25.519Z,1015.65
2016-10-25T08:56:25.325Z,1015.6
2016-10-25T08:57:26.281Z,1015.6
2016-10-25T08:58:25.590Z,1015.56
2016-10-25T08:59:25.297Z,1015.6
2016-10-25T09:00:26.455Z,1015.64
2016-10-25T09:01:25.777Z,1015.64
2016-10-25T09:02:25.319Z,1015.67
2016-10-25T09:03:26.489Z,1015.68
2016-10-25T09:04:25.886Z,1015.69
2016-10-25T09:05:25.345Z,1015.71
2016-10-25T09:06:25.357Z,1015.68
2016-10-25T09:07:26.008Z,1015.7
2016-10-25T09:08:25.365Z,1015.73
2016-10-25T09:09:25.372Z,1015.74
2016-10-25T09:10:26.132Z,1015.73
2016-10-25T09:11:25.474Z,1015.72
2016-10-25T09:12:25.394Z,1015.74
2016-10-25T09:13:26.260Z,1015.75
2016-10-25T09:14:25.595Z,1015.78
2016-10-25T09:15:25.469Z,1015.81
2016-10-25T09:16:26.427Z,1015.84
2016-10-25T09:17:25.751Z,1015.84
2016-10-25T09:18:25.440Z,1015.9
2016-10-25T09:19:26.548Z,1015.91
2016-10-25T09:20:25.824Z,1015.91
2016-10-25T09:21:25.462Z,1015.95
2016-10-25T09:22:26.529Z,1015.93
2016-10-25T09:23:25.981Z,1015.94
2016-10-25T09:24:25.735Z,1015.98
2016-10-25T09:25:25.492Z,1015.99
2016-10-25T09:26:26.103Z,1015.98
2016-10-25T09:27:25.558Z,1015.98
2016-10-25T09:28:25.514Z,1016
2016-10-25T09:29:26.227Z,1016
2016-10-25T09:30:25.534Z,1016.02
2016-10-25T09:31:25.537Z,1016.07
2016-10-25T09:32:26.397Z,1016.06
2016-10-25T09:33:25.656Z,1016.15
2016-10-25T09:34:25.559Z,1016.15
2016-10-25T09:35:26.520Z,1016.14
2016-10-25T09:36:25.779Z,1016.18
2016-10-25T09:37:25.632Z,1016.19
2016-10-25T09:38:26.650Z,1016.21
2016-10-25T09:39:25.964Z,1016.23
2016-10-25T09:40:25.605Z,1016.28
2016-10-25T09:41:26.766Z,1016.33
2016-10-25T09:42:26.077Z,1016.34
2016-10-25T09:43:25.627Z,1016.39
2016-10-25T09:44:26.673Z,1016.41
2016-10-25T09:45:26.202Z,1016.47
2016-10-25T09:46:25.650Z,1016.5
2016-10-25T09:47:25.708Z,1016.52
2016-10-25T09:48:26.383Z,1016.52
2016-10-25T09:49:25.674Z,1016.54
2016-10-25T09:50:25.731Z,1016.57
2016-10-25T09:51:26.442Z,1016.58
2016-10-25T09:52:25.756Z,1016.6
2016-10-25T09:53:25.704Z,1016.6
2016-10-25T09:54:26.565Z,1016.62
2016-10-25T09:55:25.874Z,1016.6
2016-10-25T09:56:25.727Z,1016.59
2016-10-25T09:57:26.745Z,1016.66
2016-10-25T09:58:26.049Z,1016.64
2016-10-25T09:59:25.749Z,1016.67
2016-10-25T10:00:26.860Z,1016.65
2016-10-25T10:01:26.208Z,1016.65
2016-10-25T10:02:25.772Z,1016.69
2016-10-25T10:03:26.840Z,1016.67
2016-10-25T10:04:26.291Z,1016.69
2016-10-25T10:05:25.795Z,1016.74
2016-10-25T10:06:25.803Z,1016.71
2016-10-25T10:07:26.416Z,1016.75
2016-10-25T10:08:25.819Z,1016.74
2016-10-25T10:09:25.829Z,1016.71
2016-10-25T10:10:26.537Z,1016.76
2016-10-25T10:11:26.165Z,1016.78
2016-10-25T10:12:25.848Z,1016.78
2016-10-25T10:13:26.661Z,1016.78
2016-10-25T10:14:26.034Z,1016.8
2016-10-25T10:15:25.872Z,1016.81
2016-10-25T10:16:26.832Z,1016.82
2016-10-25T10:17:26.107Z,1016.84
2016-10-25T10:18:25.896Z,1016.84
2016-10-25T10:19:26.957Z,1016.9
2016-10-25T10:20:26.278Z,1016.9
2016-10-25T10:21:25.917Z,1016.9
2016-10-25T10:22:27.077Z,1016.92
2016-10-25T10:23:26.409Z,1016.95
2016-10-25T10:24:25.939Z,1016.93
2016-10-25T10:25:26.990Z,1016.93
2016-10-25T10:26:26.526Z,1016.89
2016-10-25T10:27:26.014Z,1016.88
2016-10-25T10:28:25.971Z,1016.91
2016-10-25T10:29:26.683Z,1016.93
2016-10-25T10:30:26.036Z,1016.88
2016-10-25T10:31:25.993Z,1016.89
2016-10-25T10:32:26.829Z,1016.89
2016-10-25T10:33:26.067Z,1016.89
2016-10-25T10:34:26.017Z,1016.91
2016-10-25T10:35:26.928Z,1016.94
2016-10-25T10:36:26.200Z,1016.94
2016-10-25T10:37:26.090Z,1016.96
2016-10-25T10:38:27.051Z,1016.91
2016-10-25T10:39:26.373Z,1016.95
2016-10-25T10:40:26.063Z,1016.95
2016-10-25T10:41:27.174Z,1016.95
2016-10-25T10:42:26.433Z,1016.99
2016-10-25T10:43:26.085Z,1016.98
2016-10-25T10:44:27.143Z,1017
2016-10-25T10:45:26.606Z,1016.95
2016-10-25T10:46:26.108Z,1016.99
2016-10-25T10:47:26.116Z,1016.98
2016-10-25T10:48:26.729Z,1016.96
2016-10-25T10:49:26.180Z,1016.98
2016-10-25T10:50:26.138Z,1016.97
2016-10-25T10:51:27.114Z,1017.04
2016-10-25T10:52:26.157Z,1017.06
2016-10-25T10:53:26.161Z,1017.03
2016-10-25T10:54:26.973Z,1017.08
2016-10-25T10:55:26.280Z,1017.04
2016-10-25T10:56:26.233Z,1017.08
2016-10-25T10:57:27.144Z,1017.1
2016-10-25T10:58:26.404Z,1017.11
2016-10-25T10:59:26.220Z,1017.1
2016-10-25T11:00:27.266Z,1017.07
2016-10-25T11:01:26.841Z,1017.08
2016-10-25T11:02:26.230Z,1017.09
2016-10-25T11:03:27.440Z,1017.07
2016-10-25T11:04:26.700Z,1017.04
2016-10-25T11:05:26.253Z,1017.02
2016-10-25T11:06:27.324Z,1017.1
2016-10-25T11:07:26.821Z,1017.08
2016-10-25T11:08:26.275Z,1017.1
2016-10-25T11:09:26.283Z,1017.14
2016-10-25T11:10:26.995Z,1017.13
2016-10-25T11:11:26.297Z,1017.14
2016-10-25T11:12:26.305Z,1017.17
2016-10-25T11:13:27.066Z,1017.13
2016-10-25T11:14:26.391Z,1017.11
2016-10-25T11:15:26.328Z,1017.09
2016-10-25T11:16:27.240Z,1017.08
2016-10-25T11:17:26.498Z,1017.12
2016-10-25T11:18:26.350Z,1017.09
2016-10-25T11:19:27.312Z,1017.09
2016-10-25T11:20:26.620Z,1017.09
2016-10-25T11:21:26.374Z,1017.08
2016-10-25T11:22:27.483Z,1017.11
2016-10-25T11:23:26.795Z,1017.14
2016-10-25T11:24:26.405Z,1017.12
2016-10-25T11:25:27.456Z,1017.08
2016-10-25T11:26:26.915Z,1017.12
2016-10-25T11:27:26.420Z,1017.12
2016-10-25T11:28:26.433Z,1017.13
2016-10-25T11:29:27.037Z,1017.08
2016-10-25T11:30:26.449Z,1017.09
2016-10-25T11:31:26.451Z,1017.08
2016-10-25T11:32:27.179Z,1017.1
2016-10-25T11:33:26.485Z,1017.12
2016-10-25T11:34:26.474Z,1017.14
2016-10-25T11:35:27.285Z,1017.15
2016-10-25T11:36:26.637Z,1017.2
2016-10-25T11:37:26.497Z,1017.2
2016-10-25T11:38:27.406Z,1017.22
2016-10-25T11:39:26.780Z,1017.22
2016-10-25T11:40:26.520Z,1017.24
2016-10-25T11:41:27.579Z,1017.17
2016-10-25T11:42:26.902Z,1017.2
2016-10-25T11:43:26.542Z,1017.15
2016-10-25T11:44:27.700Z,1017.16
2016-10-25T11:45:27.027Z,1017.17
2016-10-25T11:46:26.566Z,1017.16
2016-10-25T11:47:27.640Z,1017.19
2016-10-25T11:48:27.156Z,1017.19
2016-10-25T11:49:26.590Z,1017.17
2016-10-25T11:50:26.597Z,1017.16
2016-10-25T11:51:27.258Z,1017.17
2016-10-25T11:52:26.613Z,1017.14
2016-10-25T11:53:26.671Z,1017.14
2016-10-25T11:54:27.443Z,1017.14
2016-10-25T11:55:26.703Z,1017.19
2016-10-25T11:56:26.645Z,1017.21
2016-10-25T11:57:27.565Z,1017.22
2016-10-25T11:58:26.862Z,1017.24
2016-10-25T11:59:26.683Z,1017.27
2016-10-25T12:00:27.689Z,1017.26
2016-10-25T12:01:26.997Z,1017.31
2016-10-25T12:02:26.690Z,1017.26
2016-10-25T12:03:27.811Z,1017.28
2016-10-25T12:04:27.104Z,1017.27
2016-10-25T12:05:26.763Z,1017.26
2016-10-25T12:06:27.772Z,1017.26
2016-10-25T12:07:27.228Z,1017.28
2016-10-25T12:08:26.737Z,1017.26
2016-10-25T12:09:26.744Z,1017.33